createdAt,value
2018-05-26T00:02:10.011Z,18.20
2018-05-26T00:04:38.432Z,18.20
2018-05-26T00:07:07.063Z,18.20
2018-05-26T00:09:35.692Z,18.30
2018-05-26T00:12:04.519Z,18.30
2018-05-26T00:14:33.498Z,18.20
2018-05-26T00:17:02.944Z,18.20
2018-05-26T00:19:31.086Z,18.20
2018-05-26T00:22:01.036Z,18.20
2018-05-26T00:24:29.563Z,18.20
2018-05-26T00:26:57.983Z,18.20
2018-05-26T00:29:26.510Z,18.10
2018-05-26T00:31:54.703Z,18.20
2018-05-26T00:34:23.235Z,18.20
2018-05-26T00:36:51.881Z,18.20
2018-05-26T00:39:20.026Z,18.10
2018-05-26T00:41:49.529Z,18.10
2018-05-26T00:44:18.395Z,18.00
2018-05-26T00:46:46.575Z,18.00
2018-05-26T00:49:14.810Z,18.00
2018-05-26T00:51:43.240Z,17.90
2018-05-26T00:54:11.661Z,17.90
2018-05-26T00:56:40.071Z,17.90
2018-05-26T00:59:08.713Z,17.80
2018-05-26T01:01:36.914Z,17.80
2018-05-26T01:04:05.867Z,17.90
2018-05-26T01:06:35.015Z,17.80
2018-05-26T01:09:03.965Z,17.80
2018-05-26T01:11:33.290Z,17.80
2018-05-26T01:14:01.747Z,17.70
2018-05-26T01:16:30.337Z,17.80
2018-05-26T01:18:58.998Z,17.70
2018-05-26T01:21:27.598Z,17.60
2018-05-26T01:23:56.163Z,17.60
2018-05-26T01:26:24.602Z,17.50
2018-05-26T01:28:54.677Z,17.40
2018-05-26T01:31:23.515Z,17.40
2018-05-26T01:33:52.141Z,17.40
2018-05-26T01:36:20.776Z,17.40
2018-05-26T01:38:48.930Z,17.40
2018-05-26T01:41:17.558Z,17.60
2018-05-26T01:43:46.029Z,17.60
2018-05-26T01:46:14.218Z,17.50
2018-05-26T01:48:42.882Z,17.40
2018-05-26T01:51:11.476Z,17.40
2018-05-26T01:53:39.659Z,17.40
2018-05-26T01:56:08.563Z,17.30
2018-05-26T01:58:37.194Z,17.30
2018-05-26T02:01:05.615Z,17.30
2018-05-26T02:03:34.036Z,17.20
2018-05-26T02:06:02.555Z,17.20
2018-05-26T02:08:31.495Z,17.10
2018-05-26T02:11:00.449Z,17.10
2018-05-26T02:13:28.872Z,17.10
2018-05-26T02:15:57.047Z,17.00
2018-05-26T02:18:26.310Z,17.00
2018-05-26T02:20:54.503Z,16.90
2018-05-26T02:23:22.691Z,16.90
2018-05-26T02:25:51.772Z,16.90
2018-05-26T02:28:20.782Z,16.90
2018-05-26T02:30:49.282Z,16.80
2018-05-26T02:33:17.434Z,16.80
2018-05-26T02:35:47.614Z,16.70
2018-05-26T02:38:17.052Z,16.70
2018-05-26T02:40:45.682Z,16.60
2018-05-26T02:43:14.835Z,16.60
2018-05-26T02:45:44.395Z,16.70
2018-05-26T02:48:12.937Z,16.60
2018-05-26T02:50:41.351Z,16.70
2018-05-26T02:53:11.548Z,16.90
2018-05-26T02:55:39.751Z,17.10
2018-05-26T02:58:08.188Z,17.10
2018-05-26T03:00:36.812Z,17.00
2018-05-26T03:03:05.512Z,17.00
2018-05-26T03:05:39.319Z,17.00
2018-05-26T03:08:14.296Z,17.30
2018-05-26T03:10:48.431Z,17.30
2018-05-26T03:13:22.251Z,17.40
2018-05-26T03:18:51.849Z,17.30
2018-05-26T03:21:19.990Z,17.20
2018-05-26T03:23:48.450Z,17.20
2018-05-26T03:26:16.687Z,17.20
2018-05-26T03:28:45.847Z,17.20
2018-05-26T03:31:15.001Z,17.20
2018-05-26T03:33:44.153Z,17.10
2018-05-26T03:36:14.564Z,17.20
2018-05-26T03:38:42.710Z,17.10
2018-05-26T03:41:11.402Z,17.10
2018-05-26T03:43:39.550Z,17.10
2018-05-26T03:46:07.769Z,17.20
2018-05-26T03:48:36.722Z,17.10
2018-05-26T03:51:05.922Z,17.10
2018-05-26T03:53:34.551Z,17.10
2018-05-26T03:56:28.551Z,17.10
2018-05-26T03:59:09.317Z,17.20
2018-05-26T04:01:37.486Z,17.20
2018-05-26T04:04:06.047Z,17.30
2018-05-26T04:06:34.468Z,17.30
2018-05-26T04:09:02.630Z,17.30
2018-05-26T04:11:30.817Z,17.30
2018-05-26T04:14:00.044Z,17.30
2018-05-26T04:16:29.405Z,17.20
2018-05-26T04:18:58.036Z,17.20
2018-05-26T04:21:26.679Z,17.30
2018-05-26T04:23:54.867Z,17.20
2018-05-26T04:26:24.202Z,17.30
2018-05-26T04:28:52.870Z,17.30
2018-05-26T04:31:22.126Z,17.50
2018-05-26T04:33:50.652Z,17.40
2018-05-26T04:36:19.494Z,17.50
2018-05-26T04:38:48.422Z,17.90
2018-05-26T04:41:17.419Z,18.00
2018-05-26T04:43:45.615Z,18.00
2018-05-26T04:46:15.056Z,18.40
2018-05-26T04:48:43.582Z,18.40
2018-05-26T04:51:11.738Z,18.40
2018-05-26T04:53:40.216Z,18.50
2018-05-26T04:56:08.637Z,18.60
2018-05-26T04:58:37.058Z,18.50
2018-05-26T05:01:05.479Z,18.50
2018-05-26T05:03:33.682Z,18.40
2018-05-26T05:06:02.623Z,18.40
2018-05-26T05:08:30.819Z,18.50
2018-05-26T05:10:59.269Z,18.60
2018-05-26T05:13:27.451Z,18.60
2018-05-26T05:15:56.518Z,18.60
2018-05-26T05:18:25.698Z,18.80
2018-05-26T05:20:54.926Z,19.00
2018-05-26T05:23:23.568Z,19.00
2018-05-26T05:25:52.617Z,19.00
2018-05-26T05:28:21.446Z,19.10
2018-05-26T05:30:49.987Z,19.30
2018-05-26T05:33:18.611Z,19.30
2018-05-26T05:35:47.137Z,19.40
2018-05-26T05:38:16.394Z,19.40
2018-05-26T05:40:44.574Z,19.50
2018-05-26T05:43:12.835Z,19.70
2018-05-26T05:45:41.971Z,19.70
2018-05-26T05:48:10.601Z,19.90
2018-05-26T05:50:38.862Z,20.00
2018-05-26T05:53:07.747Z,20.10
2018-05-26T05:55:36.909Z,20.20
2018-05-26T05:58:06.051Z,20.20
2018-05-26T06:00:35.935Z,20.40
2018-05-26T06:03:04.538Z,20.50
2018-05-26T06:05:32.763Z,20.70
2018-05-26T06:08:01.419Z,20.80
2018-05-26T06:10:30.048Z,20.80
2018-05-26T06:12:59.201Z,20.90
2018-05-26T06:15:27.733Z,21.00
2018-05-26T06:17:55.866Z,21.00
2018-05-26T06:20:24.403Z,21.10
2018-05-26T06:22:53.500Z,21.10
2018-05-26T06:25:21.683Z,21.20
2018-05-26T06:27:49.858Z,21.30
2018-05-26T06:30:18.886Z,21.30
2018-05-26T06:32:47.811Z,21.40
2018-05-26T06:35:16.248Z,21.50
2018-05-26T06:37:44.703Z,21.60
2018-05-26T06:40:12.818Z,21.60
2018-05-26T06:42:41.092Z,21.80
2018-05-26T06:45:09.931Z,21.80
2018-05-26T06:47:38.859Z,21.80
2018-05-26T06:50:07.504Z,21.80
2018-05-26T06:52:35.647Z,22.00
2018-05-26T06:55:04.123Z,22.10
2018-05-26T06:57:32.663Z,22.10
2018-05-26T07:00:00.811Z,22.30
2018-05-26T07:02:29.703Z,22.30
2018-05-26T07:04:58.866Z,22.40
2018-05-26T07:07:27.288Z,22.40
2018-05-26T07:09:55.540Z,22.40
2018-05-26T07:12:23.722Z,22.60
2018-05-26T07:14:52.343Z,22.70
2018-05-26T07:17:21.180Z,22.80
2018-05-26T07:19:49.362Z,22.80
2018-05-26T07:22:17.986Z,22.90
2018-05-26T07:24:46.477Z,22.90
2018-05-26T07:27:14.594Z,22.90
2018-05-26T07:29:44.539Z,23.00
2018-05-26T07:32:13.484Z,22.90
2018-05-26T07:34:42.115Z,23.10
2018-05-26T07:37:10.745Z,23.20
2018-05-26T07:39:39.689Z,23.20
2018-05-26T07:42:08.319Z,23.20
2018-05-26T07:44:36.695Z,23.40
2018-05-26T07:47:05.996Z,23.70
2018-05-26T07:49:34.627Z,23.60
2018-05-26T07:52:02.779Z,23.70
2018-05-26T07:54:31.979Z,23.80
2018-05-26T07:57:00.587Z,23.90
2018-05-26T07:59:29.670Z,23.90
2018-05-26T08:01:57.847Z,24.00
2018-05-26T08:04:26.438Z,23.90
2018-05-26T08:06:55.769Z,24.00
2018-05-26T08:09:24.817Z,24.00
2018-05-26T08:11:53.410Z,24.20
2018-05-26T08:14:21.978Z,24.30
2018-05-26T08:16:51.439Z,24.30
2018-05-26T08:19:20.271Z,24.30
2018-05-26T08:21:48.483Z,24.40
2018-05-26T08:24:17.424Z,24.50
2018-05-26T08:26:46.258Z,24.60
2018-05-26T08:29:14.660Z,24.70
2018-05-26T08:31:42.842Z,24.70
2018-05-26T08:34:11.942Z,24.80
2018-05-26T08:36:40.912Z,24.90
2018-05-26T08:39:10.054Z,24.90
2018-05-26T08:41:38.576Z,24.90
2018-05-26T08:44:07.207Z,24.90
2018-05-26T08:46:36.427Z,25.00
2018-05-26T08:49:04.606Z,25.00
2018-05-26T08:51:33.828Z,25.10
2018-05-26T08:54:02.353Z,25.20
2018-05-26T08:56:31.387Z,25.20
2018-05-26T08:58:59.927Z,25.30
2018-05-26T09:01:28.311Z,25.20
2018-05-26T09:03:56.495Z,25.30
2018-05-26T09:06:24.681Z,25.40
2018-05-26T09:08:53.821Z,25.40
2018-05-26T09:11:22.451Z,25.50
2018-05-26T09:13:51.486Z,25.60
2018-05-26T09:16:20.014Z,25.60
2018-05-26T09:18:48.412Z,25.60
2018-05-26T09:21:16.582Z,25.60
2018-05-26T09:23:46.402Z,25.70
2018-05-26T09:26:16.306Z,25.70
2018-05-26T09:28:45.250Z,25.70
2018-05-26T09:31:13.480Z,25.70
2018-05-26T09:33:42.616Z,25.80
2018-05-26T09:36:11.468Z,25.80
2018-05-26T09:38:39.633Z,26.00
2018-05-26T09:41:07.815Z,26.00
2018-05-26T09:43:36.775Z,26.10
2018-05-26T09:46:06.624Z,26.10
2018-05-26T09:48:34.809Z,26.00
2018-05-26T09:51:03.423Z,26.10
2018-05-26T09:53:32.089Z,26.20
2018-05-26T09:56:00.768Z,26.20
2018-05-26T09:58:28.858Z,26.20
2018-05-26T10:00:57.518Z,26.30
2018-05-26T10:03:25.697Z,26.40
2018-05-26T10:05:54.648Z,26.50
2018-05-26T10:08:24.081Z,26.40
2018-05-26T10:10:52.708Z,26.40
2018-05-26T10:13:21.234Z,26.40
2018-05-26T10:15:51.314Z,26.50
2018-05-26T10:18:20.482Z,26.60
2018-05-26T10:20:48.647Z,26.70
2018-05-26T10:23:17.112Z,26.70
2018-05-26T10:25:46.374Z,26.70
2018-05-26T10:28:14.791Z,26.60
2018-05-26T10:30:44.673Z,26.80
2018-05-26T10:33:13.500Z,26.70
2018-05-26T10:35:42.143Z,26.80
2018-05-26T10:38:10.300Z,26.90
2018-05-26T10:40:39.716Z,26.90
2018-05-26T10:43:08.761Z,26.90
2018-05-26T10:45:39.706Z,26.90
2018-05-26T10:48:08.639Z,27.00
2018-05-26T10:50:37.670Z,27.00
2018-05-26T10:53:06.108Z,27.00
2018-05-26T10:55:35.250Z,27.10
2018-05-26T10:58:03.678Z,27.10
2018-05-26T11:00:31.823Z,27.10
2018-05-26T11:03:00.087Z,27.20
2018-05-26T11:05:29.242Z,27.30
2018-05-26T11:07:57.424Z,27.40
2018-05-26T11:10:25.890Z,27.40
2018-05-26T11:12:55.355Z,27.40
2018-05-26T11:15:23.530Z,27.40
2018-05-26T11:17:52.110Z,27.50
2018-05-26T11:20:20.754Z,27.60
2018-05-26T11:22:48.863Z,27.60
2018-05-26T11:25:18.734Z,27.80
2018-05-26T11:27:47.554Z,27.70
2018-05-26T11:30:15.698Z,27.90
2018-05-26T11:32:44.193Z,28.00
2018-05-26T11:35:12.342Z,28.10
2018-05-26T11:37:40.806Z,28.10
2018-05-26T11:40:09.415Z,28.20
2018-05-26T11:42:37.598Z,28.40
2018-05-26T11:45:05.819Z,28.50
2018-05-26T11:47:34.401Z,28.60
2018-05-26T11:50:05.228Z,28.50
2018-05-26T11:52:34.994Z,28.60
2018-05-26T11:55:05.096Z,28.80
2018-05-26T11:57:33.270Z,28.80
2018-05-26T12:00:02.356Z,29.00
2018-05-26T12:02:30.538Z,29.10
2018-05-26T12:04:59.722Z,29.00
2018-05-26T12:07:28.143Z,29.10
2018-05-26T12:09:56.380Z,29.10
2018-05-26T12:12:26.656Z,28.90
2018-05-26T12:14:54.798Z,28.90
2018-05-26T12:17:23.509Z,29.10
2018-05-26T12:19:52.546Z,29.20
2018-05-26T12:22:20.954Z,29.30
2018-05-26T12:24:49.597Z,29.30
2018-05-26T12:27:21.347Z,29.30
2018-05-26T12:29:49.783Z,29.30
2018-05-26T12:32:18.308Z,29.40
2018-05-26T12:34:47.971Z,29.40
2018-05-26T12:37:16.613Z,29.50
2018-05-26T12:39:45.647Z,29.30
2018-05-26T12:42:15.366Z,29.30
2018-05-26T12:44:44.592Z,29.20
2018-05-26T12:47:13.082Z,29.60
2018-05-26T12:49:41.946Z,29.70
2018-05-26T12:52:11.109Z,29.80
2018-05-26T12:54:39.290Z,30.10
2018-05-26T12:57:08.354Z,30.10
2018-05-26T12:59:36.586Z,29.90
2018-05-26T13:02:06.675Z,29.80
2018-05-26T13:04:34.834Z,29.70
2018-05-26T13:07:03.482Z,29.90
2018-05-26T13:09:31.683Z,29.90
2018-05-26T13:12:00.867Z,29.90
2018-05-26T13:14:29.512Z,29.70
2018-05-26T13:16:58.547Z,29.80
2018-05-26T13:19:27.190Z,29.90
2018-05-26T13:21:55.822Z,30.00
2018-05-26T13:24:24.973Z,30.10
2018-05-26T13:26:53.574Z,30.10
2018-05-26T13:29:22.638Z,30.30
2018-05-26T13:31:51.699Z,30.50
2018-05-26T13:34:20.122Z,30.50
2018-05-26T13:36:48.534Z,30.70
2018-05-26T13:39:17.471Z,30.60
2018-05-26T13:41:45.650Z,30.80
2018-05-26T13:44:14.522Z,30.90
2018-05-26T13:46:43.365Z,31.00
2018-05-26T13:49:12.521Z,30.90
2018-05-26T13:51:40.730Z,31.10
2018-05-26T13:54:09.266Z,31.10
2018-05-26T13:56:37.402Z,31.10
2018-05-26T13:59:06.406Z,30.90
2018-05-26T14:01:34.586Z,30.80
2018-05-26T14:04:02.863Z,30.90
2018-05-26T14:06:31.480Z,30.90
2018-05-26T14:08:59.622Z,30.90
2018-05-26T14:11:29.572Z,30.80
2018-05-26T14:13:58.411Z,30.70
2018-05-26T14:16:27.239Z,30.90
2018-05-26T14:18:55.675Z,30.90
2018-05-26T14:21:24.719Z,30.90
2018-05-26T14:23:53.542Z,31.20
2018-05-26T14:26:22.583Z,31.30
2018-05-26T14:28:51.199Z,31.30
2018-05-26T14:31:20.062Z,31.50
2018-05-26T14:33:48.675Z,31.50
2018-05-26T14:36:18.510Z,31.60
2018-05-26T14:38:48.042Z,31.90
2018-05-26T14:41:16.580Z,32.20
2018-05-26T14:43:44.727Z,32.80
2018-05-26T14:46:13.218Z,33.10
2018-05-26T14:48:41.362Z,33.40
2018-05-26T14:51:10.408Z,33.70
2018-05-26T14:53:38.721Z,33.80
2018-05-26T14:56:07.421Z,34.10
2018-05-26T14:58:38.133Z,34.50
2018-05-26T15:01:06.343Z,34.40
2018-05-26T15:03:34.525Z,35.00
2018-05-26T15:06:02.707Z,35.30
2018-05-26T15:08:32.338Z,35.90
2018-05-26T15:11:01.486Z,35.70
2018-05-26T15:13:30.026Z,36.10
2018-05-26T15:15:58.298Z,36.40
2018-05-26T15:18:27.166Z,36.50
2018-05-26T15:20:55.374Z,36.80
2018-05-26T15:23:24.426Z,36.70
2018-05-26T15:25:52.605Z,36.90
2018-05-26T15:28:20.820Z,36.90
2018-05-26T15:30:51.271Z,37.10
2018-05-26T15:33:20.424Z,37.10
2018-05-26T15:35:49.055Z,37.10
2018-05-26T15:38:17.476Z,36.30
2018-05-26T15:40:46.303Z,35.50
2018-05-26T15:43:16.290Z,33.80
2018-05-26T15:45:45.143Z,33.70
2018-05-26T15:48:13.773Z,33.00
2018-05-26T15:50:42.407Z,32.50
2018-05-26T15:53:11.555Z,32.10
2018-05-26T15:55:40.079Z,31.80
2018-05-26T15:58:08.242Z,31.50
2018-05-26T16:00:37.226Z,31.20
2018-05-26T16:03:05.662Z,31.30
2018-05-26T16:05:34.079Z,31.30
2018-05-26T16:08:02.605Z,31.10
2018-05-26T16:10:31.862Z,30.70
2018-05-26T16:13:00.818Z,30.60
2018-05-26T16:15:29.435Z,30.50
2018-05-26T16:17:57.611Z,30.40
2018-05-26T16:20:26.602Z,30.10
2018-05-26T16:22:55.224Z,30.00
2018-05-26T16:25:23.359Z,29.90
2018-05-26T16:27:52.585Z,29.70
2018-05-26T16:30:21.101Z,29.70
2018-05-26T16:32:49.637Z,29.70
2018-05-26T16:35:18.058Z,29.60
2018-05-26T16:37:46.211Z,29.60
2018-05-26T16:40:15.241Z,29.50
2018-05-26T16:42:43.790Z,29.50
2018-05-26T16:45:12.265Z,29.50
2018-05-26T16:47:41.418Z,29.40
2018-05-26T16:50:09.764Z,29.40
2018-05-26T16:52:38.365Z,29.30
2018-05-26T16:55:06.515Z,29.10
2018-05-26T16:57:34.694Z,29.10
2018-05-26T17:00:04.568Z,29.20
2018-05-26T17:02:32.757Z,29.10
2018-05-26T17:05:01.417Z,29.00
2018-05-26T17:07:29.554Z,28.90
2018-05-26T17:09:58.149Z,28.90
2018-05-26T17:12:26.780Z,28.80
2018-05-26T17:14:55.410Z,28.70
2018-05-26T17:17:23.902Z,28.70
2018-05-26T17:19:52.530Z,28.70
2018-05-26T17:22:21.391Z,28.80
2018-05-26T17:24:49.921Z,28.70
2018-05-26T17:27:18.354Z,28.70
2018-05-26T17:29:46.517Z,28.70
2018-05-26T17:32:15.443Z,28.70
2018-05-26T17:34:43.995Z,28.70
2018-05-26T17:37:12.977Z,28.70
2018-05-26T17:39:41.607Z,28.70
2018-05-26T17:42:10.430Z,28.70
2018-05-26T17:44:38.610Z,28.70
2018-05-26T17:47:07.383Z,28.60
2018-05-26T17:49:35.812Z,28.60
2018-05-26T17:52:04.445Z,28.50
2018-05-26T17:54:32.934Z,28.50
2018-05-26T17:57:01.605Z,28.50
2018-05-26T17:59:30.651Z,28.50
2018-05-26T18:02:00.418Z,28.40
2018-05-26T18:04:29.567Z,28.40
2018-05-26T18:06:58.106Z,28.40
2018-05-26T18:09:26.254Z,28.40
2018-05-26T18:11:54.430Z,28.40
2018-05-26T18:14:22.953Z,28.30
2018-05-26T18:16:51.896Z,28.20
2018-05-26T18:19:21.256Z,28.00
2018-05-26T18:21:50.096Z,27.90
2018-05-26T18:24:18.275Z,27.90
2018-05-26T18:26:47.875Z,27.80
2018-05-26T18:29:17.643Z,27.60
2018-05-26T18:31:46.079Z,27.50
2018-05-26T18:34:14.352Z,27.40
2018-05-26T18:36:42.542Z,27.30
2018-05-26T18:39:11.554Z,27.30
2018-05-26T18:41:39.725Z,27.20
2018-05-26T18:44:08.916Z,27.00
2018-05-26T18:46:37.337Z,27.00
2018-05-26T18:49:05.487Z,26.80
2018-05-26T18:51:35.537Z,26.70
2018-05-26T18:54:03.751Z,26.70
2018-05-26T18:56:32.170Z,26.60
2018-05-26T18:59:00.782Z,26.50
2018-05-26T19:01:29.295Z,26.40
2018-05-26T19:03:58.172Z,26.50
2018-05-26T19:06:27.317Z,26.40
2018-05-26T19:08:55.948Z,26.30
2018-05-26T19:11:24.254Z,26.30
2018-05-26T19:13:53.591Z,26.20
2018-05-26T19:16:22.673Z,26.10
2018-05-26T19:18:51.199Z,25.90
2018-05-26T19:21:19.726Z,25.90
2018-05-26T19:23:48.111Z,25.70
2018-05-26T19:26:16.569Z,25.60
2018-05-26T19:28:45.929Z,25.40
2018-05-26T19:31:14.210Z,25.40
2018-05-26T19:33:42.834Z,25.40
2018-05-26T19:36:11.583Z,25.30
2018-05-26T19:38:40.243Z,25.40
2018-05-26T19:41:08.442Z,25.40
2018-05-26T19:43:36.946Z,25.30
2018-05-26T19:46:06.118Z,25.20
2018-05-26T19:48:34.295Z,25.10
2018-05-26T19:51:02.542Z,25.00
2018-05-26T19:53:31.186Z,25.00
2018-05-26T19:55:59.610Z,25.00
2018-05-26T19:58:28.655Z,24.80
2018-05-26T20:00:57.406Z,24.70
2018-05-26T20:03:25.603Z,24.50
2018-05-26T20:05:54.743Z,24.40
2018-05-26T20:08:23.389Z,24.40
2018-05-26T20:10:51.538Z,24.40
2018-05-26T20:13:20.332Z,24.50
2018-05-26T20:15:48.486Z,24.40
2018-05-26T20:18:16.965Z,24.30
2018-05-26T20:20:45.458Z,24.30
2018-05-26T20:23:13.913Z,24.40
2018-05-26T20:25:42.507Z,24.50
2018-05-26T20:28:11.374Z,24.30
2018-05-26T20:30:39.921Z,24.20
2018-05-26T20:33:08.643Z,24.20
2018-05-26T20:35:38.713Z,24.10
2018-05-26T20:38:07.558Z,24.00
2018-05-26T20:40:36.927Z,24.00
2018-05-26T20:43:05.106Z,24.00
2018-05-26T20:45:33.987Z,24.10
2018-05-26T20:48:02.512Z,23.90
2018-05-26T20:50:31.666Z,23.80
2018-05-26T20:53:00.191Z,23.80
2018-05-26T20:55:30.167Z,23.80
2018-05-26T20:57:58.808Z,23.60
2018-05-26T21:00:27.439Z,23.60
2018-05-26T21:02:56.035Z,23.70
2018-05-26T21:05:24.262Z,23.70
2018-05-26T21:07:52.482Z,23.50
2018-05-26T21:10:21.542Z,23.60
2018-05-26T21:12:50.679Z,23.40
2018-05-26T21:15:20.160Z,23.50
2018-05-26T21:17:48.859Z,23.40
2018-05-26T21:20:17.420Z,23.30
2018-05-26T21:22:45.567Z,23.20
2018-05-26T21:25:14.158Z,23.10
2018-05-26T21:27:42.820Z,23.00
2018-05-26T21:30:11.209Z,22.90
2018-05-26T21:32:39.358Z,22.90
2018-05-26T21:35:07.535Z,23.00
2018-05-26T21:37:36.667Z,23.10
2018-05-26T21:40:06.215Z,23.10
2018-05-26T21:42:34.446Z,23.10
2018-05-26T21:45:02.855Z,22.90
2018-05-26T21:47:31.934Z,23.00
2018-05-26T21:50:01.295Z,22.80
2018-05-26T21:52:29.577Z,22.80
2018-05-26T21:54:58.647Z,22.80
2018-05-26T21:57:28.381Z,22.90
2018-05-26T21:59:56.554Z,22.90
2018-05-26T22:02:25.137Z,22.80
2018-05-26T22:04:53.324Z,22.80
2018-05-26T22:07:22.270Z,22.80
2018-05-26T22:09:50.858Z,22.80
2018-05-26T22:12:19.384Z,22.70
2018-05-26T22:14:48.838Z,22.70
2018-05-26T22:17:17.480Z,22.70
2018-05-26T22:19:46.527Z,22.70
2018-05-26T22:22:15.053Z,22.70
2018-05-26T22:24:43.235Z,22.70
2018-05-26T22:27:11.503Z,22.60
2018-05-26T22:29:41.152Z,22.40
2018-05-26T22:32:10.136Z,22.30
2018-05-26T22:34:38.621Z,22.20
2018-05-26T22:37:07.147Z,22.20
2018-05-26T22:39:36.810Z,22.30
2018-05-26T22:42:05.244Z,22.50
2018-05-26T22:44:33.382Z,22.40
2018-05-26T22:47:03.827Z,22.20
2018-05-26T22:49:33.226Z,22.20
2018-05-26T22:52:02.270Z,22.10
2018-05-26T22:54:30.447Z,22.30
2018-05-26T22:56:59.646Z,22.10
2018-05-26T22:59:28.265Z,22.10
2018-05-26T23:01:56.406Z,22.00
2018-05-26T23:04:24.963Z,21.90
2018-05-26T23:06:53.151Z,22.00
2018-05-26T23:09:21.326Z,22.00
2018-05-26T23:11:50.267Z,22.00
2018-05-26T23:14:18.436Z,22.00
2018-05-26T23:16:47.250Z,22.00
2018-05-26T23:19:15.806Z,22.10
2018-05-26T23:21:45.311Z,22.00
2018-05-26T23:24:14.450Z,22.10
2018-05-26T23:26:43.615Z,22.20
2018-05-26T23:29:12.038Z,22.20
2018-05-26T23:31:40.966Z,22.30
2018-05-26T23:34:10.132Z,22.20
2018-05-26T23:36:38.727Z,22.30
2018-05-26T23:39:07.400Z,22.20
2018-05-26T23:41:35.534Z,22.20
2018-05-26T23:44:03.997Z,22.20
2018-05-26T23:46:33.179Z,22.20
2018-05-26T23:49:01.903Z,22.20
2018-05-26T23:51:30.842Z,22.00
2018-05-26T23:54:00.219Z,22.00
2018-05-26T23:56:28.358Z,21.90
2018-05-26T23:58:58.314Z,21.90
